createdAt,value
2019-04-23T00:00:23.613Z,34.90
2019-04-23T00:02:35.484Z,36.55
2019-04-23T00:05:13.162Z,32.20
2019-04-23T00:10:12.343Z,36.95
2019-04-23T00:12:45.264Z,35.95
2019-04-23T00:17:43.763Z,34.23
2019-04-23T00:23:02.093Z,33.98
2019-04-23T00:25:49.841Z,52.13
2019-04-23T00:28:14.168Z,42.45
2019-04-23T00:30:44.042Z,37.25
2019-04-23T00:33:15.656Z,35.75
2019-04-23T00:35:41.748Z,35.43
2019-04-23T00:38:18.271Z,37.25
2019-04-23T00:43:22.252Z,31.23
2019-04-23T00:45:47.110Z,29.72
2019-04-23T00:48:25.903Z,34.40
2019-04-23T00:50:57.358Z,35.63
2019-04-23T00:53:18.410Z,30.55
2019-04-23T00:58:23.434Z,34.23
2019-04-23T01:00:45.940Z,31.35
2019-04-23T01:03:16.933Z,33.53
2019-04-23T01:05:46.970Z,32.85
2019-04-23T01:08:18.848Z,33.13
2019-04-23T01:11:04.139Z,36.70
2019-04-23T01:13:31.302Z,30.85
2019-04-23T01:16:00.700Z,29.57
2019-04-23T01:18:45.942Z,33.40
2019-04-23T01:20:53.475Z,37.83
2019-04-23T01:23:41.849Z,29.82
2019-04-23T01:26:26.591Z,29.87
2019-04-23T01:29:02.390Z,29.23
2019-04-23T01:31:31.721Z,29.18
2019-04-23T01:33:56.635Z,33.80
2019-04-23T01:36:28.108Z,33.67
2019-04-23T01:39:01.792Z,28.42
2019-04-23T01:41:33.657Z,31.20
2019-04-23T01:43:54.904Z,28.45
2019-04-23T01:46:39.514Z,30.85
2019-04-23T01:49:20.693Z,29.05
2019-04-23T01:51:39.845Z,27.67
2019-04-23T01:54:01.812Z,31.12
2019-04-23T01:56:36.907Z,31.42
2019-04-23T01:59:06.553Z,30.27
2019-04-23T02:01:38.885Z,29.67
2019-04-23T02:04:10.093Z,30.00
2019-04-23T02:06:42.113Z,28.85
2019-04-23T02:09:10.564Z,28.65
2019-04-23T02:11:40.277Z,27.82
2019-04-23T02:14:09.482Z,27.05
2019-04-23T02:16:42.464Z,32.98
2019-04-23T02:19:21.882Z,28.38
2019-04-23T02:21:57.643Z,24.32
2019-04-23T02:24:27.480Z,29.20
2019-04-23T02:27:05.621Z,28.45
2019-04-23T02:29:36.172Z,29.07
2019-04-23T02:32:01.466Z,32.98
2019-04-23T02:36:59.854Z,27.45
2019-04-23T02:39:45.980Z,28.73
2019-04-23T02:42:22.934Z,32.58
2019-04-23T02:44:35.021Z,29.12
2019-04-23T02:49:43.806Z,31.37
2019-04-23T02:52:11.205Z,29.98
2019-04-23T02:57:11.482Z,26.60
2019-04-23T03:00:11.711Z,25.17
2019-04-23T03:04:50.629Z,29.87
2019-04-23T03:07:26.236Z,28.73
2019-04-23T03:14:59.172Z,30.82
2019-04-23T03:17:21.591Z,32.48
2019-04-23T03:20:10.640Z,30.82
2019-04-23T03:22:35.519Z,28.10
2019-04-23T03:25:21.603Z,32.48
2019-04-23T03:34:19.602Z,32.20
2019-04-23T03:37:46.821Z,30.48
2019-04-23T03:42:53.828Z,29.30
2019-04-23T03:45:29.871Z,30.15
2019-04-23T03:47:54.427Z,33.33
2019-04-23T03:50:35.788Z,32.63
2019-04-23T03:52:46.505Z,34.40
2019-04-23T03:55:30.176Z,30.50
2019-04-23T04:10:25.448Z,28.40
2019-04-23T04:13:15.739Z,29.48
2019-04-23T04:15:47.093Z,27.58
2019-04-23T04:18:11.808Z,35.28
2019-04-23T04:20:35.703Z,33.40
2019-04-23T04:23:12.653Z,27.60
2019-04-23T04:25:35.888Z,27.35
2019-04-23T04:33:15.046Z,54.00
2019-04-23T04:35:29.700Z,44.90
2019-04-23T04:43:15.465Z,37.80
2019-04-23T04:47:59.106Z,36.38
2019-04-23T04:51:00.258Z,34.38
2019-04-23T04:53:31.315Z,33.48
2019-04-23T04:55:47.163Z,38.45
2019-04-23T04:58:32.505Z,36.70
2019-04-23T05:06:05.068Z,36.28
2019-04-23T05:08:26.360Z,35.45
2019-04-23T05:11:02.144Z,36.70
2019-04-23T05:13:39.218Z,32.85
2019-04-23T05:15:50.142Z,32.50
2019-04-23T05:23:42.781Z,38.90
2019-04-23T05:28:55.886Z,40.50
2019-04-23T05:31:21.589Z,42.83
2019-04-23T05:33:52.243Z,31.40
2019-04-23T05:36:33.897Z,33.40
2019-04-23T05:39:01.257Z,37.88
2019-04-23T05:41:21.747Z,35.83
2019-04-23T05:43:55.799Z,36.53
2019-04-23T05:46:27.802Z,39.10
2019-04-23T05:48:54.345Z,29.52
2019-04-23T05:51:33.056Z,37.50
2019-04-23T05:53:56.075Z,30.02
2019-04-23T05:56:21.312Z,49.63
2019-04-23T05:58:58.003Z,36.00
2019-04-23T06:04:05.309Z,42.15
2019-04-23T06:06:37.945Z,44.45
2019-04-23T06:09:05.696Z,39.90
2019-04-23T06:11:37.018Z,40.38
2019-04-23T06:14:05.291Z,51.55
2019-04-23T06:16:36.135Z,38.20
2019-04-23T06:21:40.850Z,36.80
2019-04-23T06:24:09.820Z,37.63
2019-04-23T06:26:42.156Z,46.60
2019-04-23T06:29:05.375Z,43.05
2019-04-23T06:31:40.829Z,52.38
2019-04-23T06:34:12.462Z,45.88
2019-04-23T06:36:37.135Z,50.58
2019-04-23T06:39:02.764Z,53.83
2019-04-23T06:41:36.207Z,60.52
2019-04-23T06:44:19.550Z,56.03
2019-04-23T06:46:48.551Z,48.78
2019-04-23T06:49:21.928Z,60.78
2019-04-23T06:54:12.226Z,48.63
2019-04-23T06:56:54.392Z,45.48
2019-04-23T06:59:12.867Z,36.45
2019-04-23T07:01:56.293Z,37.58
2019-04-23T07:04:17.313Z,28.83
2019-04-23T07:09:13.131Z,29.07
2019-04-23T07:11:42.840Z,28.62
2019-04-23T07:14:28.759Z,29.70
2019-04-23T07:16:46.482Z,28.90
2019-04-23T07:19:25.306Z,30.23
2019-04-23T07:21:54.478Z,27.60
2019-04-23T07:24:21.748Z,26.27
2019-04-23T07:26:42.068Z,22.98
2019-04-23T07:29:20.290Z,26.68
2019-04-23T07:31:54.566Z,21.57
2019-04-23T07:34:18.456Z,21.50
2019-04-23T07:36:49.396Z,18.57
2019-04-23T07:39:47.335Z,21.77
2019-04-23T07:44:57.994Z,29.87
2019-04-23T07:50:12.347Z,28.85
2019-04-23T07:52:38.733Z,25.00
2019-04-23T07:55:02.601Z,28.92
2019-04-23T07:57:34.043Z,24.30
2019-04-23T08:00:02.581Z,20.10
2019-04-23T08:02:30.157Z,21.30
2019-04-23T08:05:11.240Z,24.10
2019-04-23T08:07:41.078Z,25.90
2019-04-23T08:10:00.693Z,28.55
2019-04-23T08:12:43.794Z,26.23
2019-04-23T08:17:31.211Z,22.73
2019-04-23T08:22:40.819Z,18.95
2019-04-23T08:25:19.229Z,26.23
2019-04-23T08:27:51.510Z,20.82
2019-04-23T08:30:16.261Z,18.07
2019-04-23T08:32:52.586Z,24.67
2019-04-23T08:35:19.460Z,17.80
2019-04-23T08:38:16.599Z,20.97
2019-04-23T08:42:52.754Z,21.52
2019-04-23T08:48:17.291Z,23.80
2019-04-23T08:55:58.779Z,22.25
2019-04-23T09:00:55.338Z,17.57
2019-04-23T09:05:52.251Z,29.05
2019-04-23T09:08:32.877Z,20.43
2019-04-23T09:10:56.764Z,17.55
2019-04-23T09:15:51.073Z,17.92
2019-04-23T09:18:22.958Z,16.02
2019-04-23T09:20:49.683Z,16.23
2019-04-23T09:23:33.010Z,20.65
2019-04-23T09:25:54.158Z,18.40
2019-04-23T09:28:34.602Z,17.98
2019-04-23T09:33:46.633Z,16.67
2019-04-23T09:36:13.514Z,18.10
2019-04-23T09:38:45.079Z,20.20
2019-04-23T09:41:29.981Z,14.90
2019-04-23T09:44:03.064Z,17.15
2019-04-23T09:47:00.633Z,17.67
2019-04-23T09:49:18.752Z,20.12
2019-04-23T09:51:47.649Z,19.48
2019-04-23T09:56:42.822Z,14.47
2019-04-23T09:59:34.181Z,18.27
2019-04-23T10:01:34.541Z,14.65
2019-04-23T10:04:00.328Z,15.10
2019-04-23T10:06:23.288Z,15.78
2019-04-23T10:08:53.495Z,13.78
2019-04-23T10:13:50.346Z,17.23
2019-04-23T10:16:21.524Z,20.00
2019-04-23T10:18:51.017Z,16.87
2019-04-23T10:21:21.348Z,20.15
2019-04-23T10:23:51.645Z,15.93
2019-04-23T10:26:21.892Z,18.05
2019-04-23T10:28:54.014Z,16.15
2019-04-23T10:31:23.095Z,16.32
2019-04-23T10:33:52.344Z,20.37
2019-04-23T10:36:25.406Z,20.57
2019-04-23T10:39:00.557Z,16.50
2019-04-23T10:41:23.133Z,19.75
2019-04-23T10:47:02.783Z,19.20
2019-04-23T10:54:57.651Z,22.75
2019-04-23T10:57:16.497Z,20.65
2019-04-23T11:04:57.804Z,17.35
2019-04-23T11:09:57.070Z,21.97
2019-04-23T11:12:42.344Z,15.83
2019-04-23T11:15:13.509Z,15.35
2019-04-23T11:17:38.771Z,36.20
2019-04-23T11:20:07.315Z,28.65
2019-04-23T11:25:15.405Z,15.95
2019-04-23T11:30:11.885Z,18.07
2019-04-23T11:32:46.778Z,26.82
2019-04-23T11:35:11.134Z,18.52
2019-04-23T11:40:08.641Z,41.30
2019-04-23T11:42:38.914Z,17.37
2019-04-23T11:45:06.847Z,17.82
2019-04-23T11:48:14.334Z,22.15
2019-04-23T11:50:38.025Z,25.97
2019-04-23T11:52:44.658Z,19.23
2019-04-23T11:55:18.147Z,26.52
2019-04-23T12:02:44.797Z,25.05
2019-04-23T12:08:08.004Z,20.08
2019-04-23T12:11:11.821Z,22.35
2019-04-23T12:15:53.414Z,27.07
2019-04-23T12:18:28.409Z,32.85
2019-04-23T12:21:04.124Z,29.12
2019-04-23T12:23:35.039Z,21.62
2019-04-23T12:25:58.637Z,15.60
2019-04-23T12:28:23.535Z,26.12
2019-04-23T12:30:50.688Z,22.42
2019-04-23T12:33:42.668Z,20.48
2019-04-23T12:35:58.298Z,18.62
2019-04-23T12:38:25.418Z,21.12
2019-04-23T12:40:55.980Z,19.67
2019-04-23T12:43:23.328Z,24.50
2019-04-23T12:45:52.056Z,22.45
2019-04-23T12:48:46.796Z,19.30
2019-04-23T12:51:19.706Z,24.67
2019-04-23T12:56:01.971Z,17.75
2019-04-23T12:58:29.234Z,20.72
2019-04-23T13:00:58.621Z,26.57
2019-04-23T13:05:57.412Z,23.92
2019-04-23T13:08:38.148Z,32.53
2019-04-23T13:11:23.339Z,20.05
2019-04-23T13:13:37.490Z,25.90
2019-04-23T13:16:12.250Z,20.10
2019-04-23T13:18:41.444Z,21.25
2019-04-23T13:21:15.717Z,22.95
2019-04-23T13:23:34.769Z,25.55
2019-04-23T13:26:06.124Z,33.35
2019-04-23T13:28:48.470Z,21.50
2019-04-23T13:31:12.128Z,17.65
2019-04-23T13:36:29.635Z,22.00
2019-04-23T13:38:56.970Z,21.40
2019-04-23T13:43:47.092Z,18.82
2019-04-23T13:46:28.763Z,20.25
2019-04-23T13:48:42.157Z,20.00
2019-04-23T13:51:20.797Z,25.00
2019-04-23T13:56:30.259Z,25.48
2019-04-23T13:58:51.882Z,25.37
2019-04-23T14:01:28.059Z,23.42
2019-04-23T14:06:36.637Z,24.90
2019-04-23T14:13:58.578Z,18.85
2019-04-23T14:16:39.712Z,19.48
2019-04-23T14:18:58.438Z,20.48
2019-04-23T14:28:52.664Z,21.85
2019-04-23T14:31:23.373Z,21.68
2019-04-23T14:39:18.310Z,21.48
2019-04-23T14:41:26.112Z,21.35
2019-04-23T14:44:11.263Z,19.37
2019-04-23T14:49:16.164Z,18.02
2019-04-23T14:54:12.930Z,21.30
2019-04-23T14:57:03.562Z,23.18
2019-04-23T14:59:10.977Z,24.60
2019-04-23T15:01:47.723Z,21.57
2019-04-23T15:04:11.055Z,21.75
2019-04-23T15:06:54.851Z,21.37
2019-04-23T15:11:57.076Z,21.82
2019-04-23T15:14:17.183Z,24.18
2019-04-23T15:22:04.702Z,25.68
2019-04-23T15:29:13.042Z,22.37
2019-04-23T15:34:27.205Z,23.98
2019-04-23T15:39:47.844Z,21.87
2019-04-23T15:42:07.085Z,16.30
2019-04-23T15:44:22.990Z,24.75
2019-04-23T15:47:04.545Z,17.82
2019-04-23T15:52:04.057Z,24.35
2019-04-23T15:56:59.512Z,21.77
2019-04-23T15:59:41.577Z,20.35
2019-04-23T16:01:41.926Z,20.50
2019-04-23T16:04:09.747Z,17.20
2019-04-23T16:06:38.952Z,18.98
2019-04-23T16:09:26.034Z,18.80
2019-04-23T16:11:59.734Z,16.20
2019-04-23T16:14:41.132Z,16.67
2019-04-23T16:19:43.957Z,16.07
2019-04-23T16:22:11.345Z,21.68
2019-04-23T16:24:49.067Z,24.40
2019-04-23T16:27:19.586Z,16.15
2019-04-23T16:29:53.776Z,18.65
2019-04-23T16:32:24.419Z,20.23
2019-04-23T16:34:39.396Z,20.70
2019-04-23T16:39:58.236Z,21.17
2019-04-23T16:42:27.675Z,19.95
2019-04-23T16:45:07.498Z,18.35
2019-04-23T16:47:26.483Z,21.50
2019-04-23T16:50:03.164Z,18.37
2019-04-23T16:52:24.579Z,18.05
2019-04-23T16:54:55.350Z,22.15
2019-04-23T16:57:32.645Z,22.25
2019-04-23T17:02:24.580Z,23.92
2019-04-23T17:05:02.739Z,20.82
2019-04-23T17:07:21.054Z,20.70
2019-04-23T17:10:08.106Z,19.37
2019-04-23T17:12:17.103Z,20.23
2019-04-23T17:15:05.384Z,24.63
2019-04-23T17:17:27.375Z,23.18
2019-04-23T17:20:02.683Z,19.05
2019-04-23T17:22:29.521Z,28.17
2019-04-23T17:25:05.622Z,23.87
2019-04-23T17:27:28.090Z,25.05
2019-04-23T17:30:03.589Z,22.30
2019-04-23T17:32:36.595Z,19.37
2019-04-23T17:37:37.368Z,23.15
2019-04-23T17:40:26.591Z,29.07
2019-04-23T17:42:55.492Z,23.62
2019-04-23T17:48:15.771Z,28.47
2019-04-23T17:50:53.141Z,24.87
2019-04-23T17:53:22.303Z,22.52
2019-04-23T17:55:57.646Z,21.27
2019-04-23T17:58:26.140Z,24.10
2019-04-23T18:01:06.945Z,23.27
2019-04-23T18:03:25.842Z,19.15
2019-04-23T18:06:08.996Z,27.82
2019-04-23T18:11:05.878Z,27.45
2019-04-23T18:13:28.253Z,25.00
2019-04-23T18:16:06.747Z,26.10
2019-04-23T18:18:31.008Z,32.42
2019-04-23T18:21:13.754Z,36.70
2019-04-23T18:26:17.536Z,32.65
2019-04-23T18:28:45.880Z,33.88
2019-04-23T18:36:32.185Z,34.50
2019-04-23T18:39:07.184Z,38.55
2019-04-23T18:41:41.558Z,30.95
2019-04-23T18:46:37.126Z,29.72
2019-04-23T18:49:01.066Z,33.85
2019-04-23T18:51:36.713Z,34.35
2019-04-23T18:53:56.547Z,41.30
2019-04-23T18:56:51.912Z,32.45
2019-04-23T18:59:11.037Z,30.72
2019-04-23T19:01:57.914Z,29.18
2019-04-23T19:07:36.872Z,24.60
2019-04-23T19:13:09.555Z,26.02
2019-04-23T19:15:33.739Z,25.68
2019-04-23T19:18:04.127Z,33.80
2019-04-23T19:20:49.087Z,22.75
2019-04-23T19:22:58.564Z,26.35
2019-04-23T19:25:31.701Z,22.02
2019-04-23T19:28:32.350Z,25.90
2019-04-23T19:33:30.884Z,27.22
2019-04-23T19:35:59.375Z,24.92
2019-04-23T19:38:12.381Z,24.45
2019-04-23T19:40:46.325Z,24.25
2019-04-23T19:43:11.530Z,34.38
2019-04-23T19:45:49.697Z,26.50
2019-04-23T19:48:19.357Z,23.92
2019-04-23T19:50:57.317Z,22.52
2019-04-23T19:55:57.090Z,26.75
2019-04-23T19:58:25.435Z,26.02
2019-04-23T20:01:05.446Z,23.90
2019-04-23T20:05:53.813Z,23.50
2019-04-23T20:08:44.063Z,26.57
2019-04-23T20:10:49.855Z,27.77
2019-04-23T20:13:31.614Z,26.85
2019-04-23T20:16:07.964Z,23.18
2019-04-23T20:18:33.503Z,24.00
2019-04-23T20:20:54.306Z,30.23
2019-04-23T20:23:40.391Z,24.70
2019-04-23T20:29:03.198Z,22.82
2019-04-23T20:32:25.597Z,25.25
2019-04-23T20:34:24.508Z,24.65
2019-04-23T20:36:40.107Z,24.07
2019-04-23T20:54:42.317Z,23.10
2019-04-23T20:57:24.589Z,26.12
2019-04-23T20:59:56.634Z,23.35
2019-04-23T21:02:41.995Z,24.32
2019-04-23T21:05:08.416Z,21.80
2019-04-23T21:07:40.401Z,24.80
2019-04-23T21:10:09.203Z,21.90
2019-04-23T21:12:43.161Z,25.72
2019-04-23T21:15:05.355Z,27.20
2019-04-23T21:17:36.227Z,28.50
2019-04-23T21:20:10.269Z,26.57
2019-04-23T21:22:32.084Z,22.37
2019-04-23T21:32:40.994Z,27.52
2019-04-23T21:35:12.975Z,33.15
2019-04-23T21:37:42.841Z,28.30
2019-04-23T21:40:27.384Z,21.35
2019-04-23T21:42:55.974Z,24.55
2019-04-23T21:48:00.640Z,24.65
2019-04-23T21:50:25.307Z,26.75
2019-04-23T21:52:54.807Z,28.87
2019-04-23T21:55:30.683Z,23.75
2019-04-23T21:58:01.357Z,25.62
2019-04-23T22:00:34.616Z,30.35
2019-04-23T22:03:06.728Z,28.70
2019-04-23T22:10:25.594Z,26.95
2019-04-23T22:15:33.708Z,24.02
2019-04-23T22:18:00.636Z,25.17
2019-04-23T22:20:34.771Z,28.30
2019-04-23T22:25:44.230Z,29.37
2019-04-23T22:28:03.222Z,26.90
2019-04-23T22:30:45.926Z,29.45
2019-04-23T22:33:10.095Z,28.40
2019-04-23T22:35:51.797Z,24.23
2019-04-23T22:40:34.472Z,26.17
2019-04-23T22:45:44.385Z,31.70
2019-04-23T22:50:47.441Z,28.10
2019-04-23T22:53:20.549Z,28.38
2019-04-23T22:55:51.599Z,27.52
2019-04-23T22:58:16.319Z,26.50
2019-04-23T23:00:48.381Z,23.07
2019-04-23T23:03:27.424Z,26.57
2019-04-23T23:08:55.863Z,26.73
2019-04-23T23:10:57.307Z,33.90
2019-04-23T23:13:28.505Z,25.15
2019-04-23T23:16:01.116Z,25.48
2019-04-23T23:18:31.032Z,31.17
2019-04-23T23:21:04.184Z,27.02
2019-04-23T23:26:02.397Z,28.02
2019-04-23T23:33:31.973Z,21.07
2019-04-23T23:36:06.956Z,27.52
2019-04-23T23:38:41.595Z,25.52
2019-04-23T23:41:11.832Z,22.50
2019-04-23T23:46:13.711Z,26.52
2019-04-23T23:48:35.929Z,27.00
2019-04-23T23:56:10.798Z,23.95
